createdAt,value
2022-11-22T00:00:16.421Z,50.60
2022-11-22T00:01:16.382Z,52.05
2022-11-22T00:02:16.433Z,49.95
2022-11-22T00:03:16.366Z,49.47
2022-11-22T00:04:16.363Z,53.33
2022-11-22T00:05:17.336Z,54.79
2022-11-22T00:06:16.318Z,63.81
2022-11-22T00:07:16.343Z,62.84
2022-11-22T00:08:16.396Z,53.50
2022-11-22T00:09:16.338Z,63.49
2022-11-22T00:10:16.333Z,57.52
2022-11-22T00:11:16.287Z,54.62
2022-11-22T00:12:16.287Z,54.46
2022-11-22T00:13:16.300Z,57.69
2022-11-22T00:14:16.255Z,51.72
2022-11-22T00:15:16.264Z,52.53
2022-11-22T00:16:16.232Z,57.04
2022-11-22T00:17:16.216Z,67.19
2022-11-22T00:18:16.224Z,57.85
2022-11-22T00:19:16.283Z,52.85
2022-11-22T00:20:17.203Z,58.33
2022-11-22T00:21:16.199Z,59.78
2022-11-22T00:22:16.238Z,60.75
2022-11-22T00:23:16.163Z,58.33
2022-11-22T00:24:16.159Z,57.20
2022-11-22T00:25:16.134Z,56.88
2022-11-22T00:26:16.131Z,53.82
2022-11-22T00:27:16.103Z,58.97
2022-11-22T00:28:16.100Z,63.49
2022-11-22T00:29:16.100Z,65.74
2022-11-22T00:30:16.101Z,50.60
2022-11-22T00:31:16.092Z,51.88
2022-11-22T00:32:16.066Z,53.01
2022-11-22T00:33:16.031Z,58.81
2022-11-22T00:34:16.019Z,51.72
2022-11-22T00:35:16.008Z,61.07
2022-11-22T00:36:16.007Z,55.59
2022-11-22T00:37:16.004Z,59.78
2022-11-22T00:38:15.989Z,53.01
2022-11-22T00:39:15.980Z,53.66
2022-11-22T00:40:15.951Z,56.07
2022-11-22T00:41:16.024Z,63.33
2022-11-22T00:42:15.944Z,55.91
2022-11-22T00:43:15.932Z,55.75
2022-11-22T00:44:15.911Z,57.20
2022-11-22T00:45:15.964Z,58.33
2022-11-22T00:46:15.947Z,54.62
2022-11-22T00:47:15.892Z,52.85
2022-11-22T00:48:15.883Z,61.23
2022-11-22T00:49:15.864Z,57.69
2022-11-22T00:50:15.857Z,60.10
2022-11-22T00:51:15.821Z,55.59
2022-11-22T00:52:15.807Z,53.33
2022-11-22T00:53:15.859Z,52.37
2022-11-22T00:54:15.793Z,60.91
2022-11-22T00:55:15.813Z,52.69
2022-11-22T00:56:15.794Z,53.01
2022-11-22T00:57:15.764Z,52.21
2022-11-22T00:58:15.761Z,53.66
2022-11-22T00:59:15.820Z,58.81
2022-11-22T01:00:15.739Z,61.87
2022-11-22T01:01:15.796Z,56.72
2022-11-22T01:02:15.709Z,52.21
2022-11-22T01:03:15.716Z,53.01
2022-11-22T01:04:15.757Z,64.78
2022-11-22T01:05:15.705Z,64.13
2022-11-22T01:06:15.661Z,67.84
2022-11-22T01:07:15.748Z,64.13
2022-11-22T01:08:15.657Z,54.14
2022-11-22T01:09:15.635Z,56.07
2022-11-22T01:10:15.689Z,56.07
2022-11-22T01:11:15.612Z,53.17
2022-11-22T01:12:15.593Z,56.72
2022-11-22T01:13:16.601Z,59.78
2022-11-22T01:14:15.574Z,53.33
2022-11-22T01:15:15.592Z,53.17
2022-11-22T01:16:15.553Z,53.33
2022-11-22T01:17:15.593Z,53.33
2022-11-22T01:18:15.573Z,55.27
2022-11-22T01:19:15.516Z,58.97
2022-11-22T01:20:15.513Z,52.37
2022-11-22T01:21:15.569Z,52.85
2022-11-22T01:22:15.505Z,53.66
2022-11-22T01:23:15.530Z,53.01
2022-11-22T01:24:15.493Z,52.53
2022-11-22T01:25:16.233Z,54.62
2022-11-22T01:26:15.472Z,53.50
2022-11-22T01:27:15.449Z,54.14
2022-11-22T01:28:15.454Z,59.30
2022-11-22T01:29:15.435Z,58.65
2022-11-22T01:30:15.442Z,59.46
2022-11-22T01:31:15.438Z,50.92
2022-11-22T01:32:15.414Z,57.36
2022-11-22T01:33:15.382Z,58.97
2022-11-22T01:34:15.401Z,53.01
2022-11-22T01:35:15.406Z,50.92
2022-11-22T01:36:15.390Z,55.11
2022-11-22T01:37:15.378Z,51.40
2022-11-22T01:38:15.355Z,56.07
2022-11-22T01:39:15.378Z,52.21
2022-11-22T01:40:15.329Z,51.56
2022-11-22T01:41:16.243Z,55.75
2022-11-22T01:42:15.322Z,59.30
2022-11-22T01:43:15.298Z,61.39
2022-11-22T01:44:15.646Z,64.78
2022-11-22T01:45:15.288Z,63.16
2022-11-22T01:46:15.231Z,56.72
2022-11-22T01:47:15.290Z,53.98
2022-11-22T01:48:15.279Z,51.56
2022-11-22T01:49:15.235Z,53.33
2022-11-22T01:50:16.283Z,50.60
2022-11-22T01:51:15.204Z,50.76
2022-11-22T01:52:15.203Z,58.33
2022-11-22T01:53:15.172Z,54.62
2022-11-22T01:54:15.191Z,63.65
2022-11-22T01:55:15.174Z,61.55
2022-11-22T01:56:15.151Z,64.13
2022-11-22T01:57:15.128Z,53.82
2022-11-22T01:58:15.163Z,64.78
2022-11-22T01:59:15.152Z,56.24
2022-11-22T02:00:15.156Z,56.07
2022-11-22T02:01:15.141Z,53.50
2022-11-22T02:02:15.095Z,60.42
2022-11-22T02:03:15.103Z,56.88
2022-11-22T02:04:15.066Z,51.24
2022-11-22T02:05:15.121Z,56.88
2022-11-22T02:06:15.036Z,54.95
2022-11-22T02:07:15.090Z,56.07
2022-11-22T02:08:15.039Z,55.43
2022-11-22T02:09:15.051Z,65.26
2022-11-22T02:10:14.992Z,54.79
2022-11-22T02:11:15.029Z,52.37
2022-11-22T02:12:15.000Z,63.97
2022-11-22T02:13:15.016Z,53.82
2022-11-22T02:14:14.984Z,66.06
2022-11-22T02:15:14.921Z,52.53
2022-11-22T02:16:14.942Z,52.05
2022-11-22T02:17:14.967Z,63.81
2022-11-22T02:18:14.895Z,53.17
2022-11-22T02:19:14.895Z,53.82
2022-11-22T02:20:14.916Z,54.79
2022-11-22T02:21:14.904Z,58.49
2022-11-22T02:22:14.856Z,60.26
2022-11-22T02:23:14.852Z,55.59
2022-11-22T02:24:14.985Z,56.88
2022-11-22T02:25:14.841Z,51.40
2022-11-22T02:26:14.853Z,54.14
2022-11-22T02:27:14.844Z,58.49
2022-11-22T02:28:14.834Z,56.40
2022-11-22T02:29:14.781Z,56.07
2022-11-22T02:30:14.817Z,52.53
2022-11-22T02:31:14.768Z,56.40
2022-11-22T02:32:14.747Z,62.84
2022-11-22T02:33:14.761Z,50.60
2022-11-22T02:34:14.870Z,52.37
2022-11-22T02:35:14.751Z,59.30
2022-11-22T02:36:14.755Z,52.05
2022-11-22T02:37:14.681Z,53.17
2022-11-22T02:38:14.713Z,55.91
2022-11-22T02:39:14.702Z,52.05
2022-11-22T02:40:14.693Z,60.26
2022-11-22T02:41:14.674Z,59.94
2022-11-22T02:42:15.202Z,50.76
2022-11-22T02:43:14.618Z,51.72
2022-11-22T02:44:14.650Z,53.50
2022-11-22T02:45:14.657Z,64.13
2022-11-22T02:46:14.639Z,53.82
2022-11-22T02:47:14.606Z,51.40
2022-11-22T02:48:14.579Z,60.26
2022-11-22T02:49:14.660Z,56.24
2022-11-22T02:50:14.590Z,58.01
2022-11-22T02:51:14.583Z,61.39
2022-11-22T02:52:14.575Z,50.92
2022-11-22T02:53:14.550Z,50.92
2022-11-22T02:54:14.542Z,53.33
2022-11-22T02:55:14.518Z,50.60
2022-11-22T02:56:14.541Z,52.37
2022-11-22T02:57:14.518Z,57.52
2022-11-22T02:58:14.467Z,51.40
2022-11-22T02:59:14.472Z,54.62
2022-11-22T03:00:15.112Z,52.69
2022-11-22T03:01:14.509Z,59.14
2022-11-22T03:02:14.467Z,63.33
2022-11-22T03:03:14.438Z,66.39
2022-11-22T03:04:14.542Z,54.95
2022-11-22T03:05:14.438Z,52.69
2022-11-22T03:06:14.486Z,59.46
2022-11-22T03:07:14.419Z,56.56
2022-11-22T03:08:14.401Z,58.65
2022-11-22T03:09:14.379Z,55.27
2022-11-22T03:10:14.360Z,63.49
2022-11-22T03:11:14.333Z,62.04
2022-11-22T03:12:14.352Z,59.62
2022-11-22T03:13:14.373Z,55.75
2022-11-22T03:14:14.324Z,52.53
2022-11-22T03:15:14.308Z,67.03
2022-11-22T03:16:14.315Z,59.14
2022-11-22T03:17:14.279Z,59.78
2022-11-22T03:18:14.471Z,55.91
2022-11-22T03:19:14.251Z,63.16
2022-11-22T03:20:14.283Z,54.46
2022-11-22T03:21:14.241Z,61.87
2022-11-22T03:22:14.252Z,51.24
2022-11-22T03:23:14.199Z,56.24
2022-11-22T03:24:15.192Z,56.07
2022-11-22T03:25:14.188Z,66.06
2022-11-22T03:26:14.203Z,63.81
2022-11-22T03:27:14.207Z,59.14
2022-11-22T03:28:14.176Z,58.17
2022-11-22T03:29:14.183Z,56.40
2022-11-22T03:30:14.148Z,59.30
2022-11-22T03:31:14.204Z,56.40
2022-11-22T03:32:14.131Z,53.82
2022-11-22T03:33:14.119Z,60.26
2022-11-22T03:34:14.104Z,61.55
2022-11-22T03:35:15.101Z,56.72
2022-11-22T03:36:14.088Z,66.87
2022-11-22T03:37:14.105Z,63.97
2022-11-22T03:38:14.065Z,66.06
2022-11-22T03:39:14.059Z,68.48
2022-11-22T03:40:14.042Z,62.84
2022-11-22T03:41:14.084Z,64.61
2022-11-22T03:42:19.698Z,62.84
2022-11-22T03:43:16.053Z,60.75
2022-11-22T03:44:14.018Z,62.36
2022-11-22T03:45:14.015Z,59.30
2022-11-22T03:46:14.000Z,66.71
2022-11-22T03:47:13.981Z,68.64
2022-11-22T03:48:14.012Z,60.26
2022-11-22T03:49:13.993Z,60.26
2022-11-22T03:50:13.950Z,67.35
2022-11-22T03:51:13.934Z,63.81
2022-11-22T03:52:13.933Z,62.04
2022-11-22T03:53:13.949Z,62.20
2022-11-22T03:54:13.889Z,63.81
2022-11-22T03:55:13.891Z,66.06
2022-11-22T03:56:13.888Z,58.33
2022-11-22T03:57:13.885Z,69.61
2022-11-22T03:58:13.854Z,64.29
2022-11-22T03:59:13.856Z,65.58
2022-11-22T04:00:13.854Z,62.84
2022-11-22T04:01:16.817Z,68.00
2022-11-22T04:02:13.878Z,64.45
2022-11-22T04:03:13.822Z,70.09
2022-11-22T04:04:13.805Z,68.48
2022-11-22T04:05:13.802Z,59.30
2022-11-22T04:06:13.833Z,67.68
2022-11-22T04:07:13.824Z,68.80
2022-11-22T04:08:13.730Z,58.49
2022-11-22T04:09:13.770Z,64.13
2022-11-22T04:10:16.480Z,72.35
2022-11-22T04:11:14.704Z,69.45
2022-11-22T04:12:13.708Z,70.58
2022-11-22T04:13:13.724Z,64.13
2022-11-22T04:14:13.690Z,68.16
2022-11-22T04:15:13.741Z,68.96
2022-11-22T04:16:13.698Z,66.39
2022-11-22T04:17:13.713Z,70.25
2022-11-22T04:18:13.619Z,70.09
2022-11-22T04:19:13.643Z,71.06
2022-11-22T04:20:13.636Z,69.45
2022-11-22T04:21:13.618Z,69.61
2022-11-22T04:22:13.620Z,72.67
2022-11-22T04:23:13.632Z,68.48
2022-11-22T04:24:13.593Z,68.64
2022-11-22T04:25:13.638Z,68.16
2022-11-22T04:26:13.544Z,67.51
2022-11-22T04:27:13.615Z,70.25
2022-11-22T04:28:13.559Z,68.80
2022-11-22T04:29:13.519Z,70.25
2022-11-22T04:30:18.936Z,67.68
2022-11-22T04:31:15.577Z,70.09
2022-11-22T04:32:13.508Z,69.93
2022-11-22T04:33:13.487Z,73.48
2022-11-22T04:34:13.474Z,74.60
2022-11-22T04:35:13.461Z,73.48
2022-11-22T04:36:13.679Z,73.80
2022-11-22T04:37:14.455Z,72.99
2022-11-22T04:38:13.448Z,70.42
2022-11-22T04:39:13.449Z,70.09
2022-11-22T04:40:13.417Z,72.83
2022-11-22T04:41:13.381Z,75.89
2022-11-22T04:42:13.391Z,72.99
2022-11-22T04:43:13.375Z,74.60
2022-11-22T04:44:13.364Z,75.73
2022-11-22T04:45:13.403Z,70.58
2022-11-22T04:46:13.356Z,72.51
2022-11-22T04:47:13.340Z,73.48
2022-11-22T04:48:13.344Z,72.03
2022-11-22T04:49:13.316Z,73.96
2022-11-22T04:50:13.299Z,73.80
2022-11-22T04:51:13.316Z,72.19
2022-11-22T04:52:14.195Z,72.19
2022-11-22T04:53:13.252Z,71.87
2022-11-22T04:54:13.281Z,69.61
2022-11-22T04:55:13.281Z,74.28
2022-11-22T04:56:13.244Z,71.70
2022-11-22T04:57:13.209Z,72.83
2022-11-22T04:58:13.254Z,72.19
2022-11-22T04:59:13.223Z,72.19
2022-11-22T05:00:13.194Z,68.64
2022-11-22T05:01:13.277Z,74.12
2022-11-22T05:02:13.176Z,75.09
2022-11-22T05:03:13.227Z,67.03
2022-11-22T05:04:13.159Z,72.51
2022-11-22T05:05:13.122Z,72.67
2022-11-22T05:06:13.144Z,71.38
2022-11-22T05:07:13.153Z,71.87
2022-11-22T05:08:13.135Z,73.32
2022-11-22T05:09:13.116Z,74.12
2022-11-22T05:10:13.185Z,74.60
2022-11-22T05:11:13.665Z,75.89
2022-11-22T05:12:13.082Z,70.90
2022-11-22T05:13:13.101Z,73.48
2022-11-22T05:14:13.071Z,70.42
2022-11-22T05:15:13.090Z,72.35
2022-11-22T05:16:13.129Z,70.74
2022-11-22T05:17:13.915Z,69.13
2022-11-22T05:18:14.030Z,73.32
2022-11-22T05:19:12.998Z,72.19
2022-11-22T05:20:12.985Z,72.99
2022-11-22T05:21:13.000Z,73.96
2022-11-22T05:22:12.958Z,73.48
2022-11-22T05:23:12.969Z,66.06
2022-11-22T05:24:12.935Z,70.42
2022-11-22T05:25:12.918Z,74.60
2022-11-22T05:26:13.638Z,72.03
2022-11-22T05:27:12.919Z,67.68
2022-11-22T05:28:12.914Z,75.41
2022-11-22T05:29:12.876Z,72.99
2022-11-22T05:30:12.861Z,72.03
2022-11-22T05:31:12.867Z,75.89
2022-11-22T05:32:12.874Z,74.44
2022-11-22T05:33:12.839Z,73.15
2022-11-22T05:34:12.858Z,73.96
2022-11-22T05:35:12.819Z,73.80
2022-11-22T05:36:12.815Z,73.48
2022-11-22T05:37:13.819Z,74.60
2022-11-22T05:38:12.810Z,77.02
2022-11-22T05:39:12.931Z,73.48
2022-11-22T05:40:12.801Z,74.77
2022-11-22T05:41:12.766Z,75.25
2022-11-22T05:42:12.744Z,70.90
2022-11-22T05:43:12.718Z,76.54
2022-11-22T05:44:12.714Z,75.41
2022-11-22T05:45:12.786Z,72.83
2022-11-22T05:46:12.686Z,76.38
2022-11-22T05:47:12.677Z,77.50
2022-11-22T05:48:12.660Z,77.02
2022-11-22T05:49:12.705Z,74.44
2022-11-22T05:50:12.670Z,74.44
2022-11-22T05:51:12.656Z,74.93
2022-11-22T05:52:12.621Z,74.93
2022-11-22T05:53:12.630Z,75.09
2022-11-22T05:54:12.628Z,74.12
2022-11-22T05:55:12.610Z,75.73
2022-11-22T05:56:12.610Z,75.09
2022-11-22T05:57:12.577Z,74.77
2022-11-22T05:58:12.541Z,71.22
2022-11-22T05:59:13.546Z,71.22
2022-11-22T06:00:12.547Z,76.54
2022-11-22T06:01:12.537Z,76.05
2022-11-22T06:02:12.604Z,70.58
2022-11-22T06:03:12.705Z,74.44
2022-11-22T06:04:12.507Z,72.83
2022-11-22T06:05:12.497Z,74.28
2022-11-22T06:06:12.495Z,73.48
2022-11-22T06:07:12.494Z,74.28
2022-11-22T06:08:12.534Z,75.57
2022-11-22T06:09:12.514Z,75.25
2022-11-22T06:10:12.491Z,74.93
2022-11-22T06:11:12.524Z,72.35
2022-11-22T06:12:12.406Z,74.77
2022-11-22T06:13:12.436Z,76.54
2022-11-22T06:14:12.686Z,75.09
2022-11-22T06:15:12.392Z,74.93
2022-11-22T06:16:12.415Z,73.64
2022-11-22T06:17:12.428Z,76.86
2022-11-22T06:18:12.366Z,77.18
2022-11-22T06:19:12.364Z,76.22
2022-11-22T06:20:12.387Z,74.93
2022-11-22T06:21:12.468Z,74.60
2022-11-22T06:22:12.371Z,77.50
2022-11-22T06:23:12.320Z,75.09
2022-11-22T06:24:12.288Z,76.05
2022-11-22T06:25:12.299Z,77.02
2022-11-22T06:26:12.298Z,72.03
2022-11-22T06:27:12.308Z,73.80
2022-11-22T06:28:12.342Z,74.44
2022-11-22T06:29:12.307Z,74.93
2022-11-22T06:30:12.243Z,75.41
2022-11-22T06:31:12.219Z,76.86
2022-11-22T06:32:12.209Z,75.73
2022-11-22T06:33:12.225Z,77.34
2022-11-22T06:34:12.263Z,77.50
2022-11-22T06:35:12.305Z,76.05
2022-11-22T06:36:12.263Z,74.93
2022-11-22T06:37:12.231Z,74.77
2022-11-22T06:38:12.140Z,76.54
2022-11-22T06:39:12.141Z,77.67
2022-11-22T06:40:12.132Z,76.05
2022-11-22T06:41:12.130Z,74.93
2022-11-22T06:42:12.113Z,72.03
2022-11-22T06:43:12.125Z,71.70
2022-11-22T06:44:12.076Z,76.54
2022-11-22T06:45:12.096Z,77.18
2022-11-22T06:46:12.103Z,75.09
2022-11-22T06:47:12.085Z,77.34
2022-11-22T06:48:12.054Z,75.41
2022-11-22T06:49:12.039Z,76.05
2022-11-22T06:50:15.131Z,76.05
2022-11-22T06:51:13.004Z,76.22
2022-11-22T06:52:12.019Z,75.09
2022-11-22T06:53:32.362Z,76.54
2022-11-22T06:54:14.092Z,73.15
2022-11-22T06:55:34.672Z,71.22
2022-11-22T06:56:13.955Z,73.48
2022-11-22T06:57:11.964Z,74.77
2022-11-22T06:58:11.987Z,75.57
2022-11-22T06:59:11.953Z,71.87
2022-11-22T07:00:11.960Z,76.22
2022-11-22T07:01:11.947Z,73.15
2022-11-22T07:02:11.936Z,74.28
2022-11-22T07:03:11.937Z,75.41
2022-11-22T07:04:11.864Z,75.89
2022-11-22T07:05:25.706Z,71.70
2022-11-22T07:06:13.836Z,75.73
2022-11-22T07:07:11.877Z,77.34
2022-11-22T07:08:14.001Z,73.64
2022-11-22T07:09:12.868Z,74.44
2022-11-22T07:10:11.804Z,76.54
2022-11-22T07:11:11.800Z,74.44
2022-11-22T07:12:11.797Z,74.93
2022-11-22T07:13:11.809Z,75.41
2022-11-22T07:14:11.778Z,75.89
2022-11-22T07:15:11.781Z,74.44
2022-11-22T07:16:11.714Z,73.32
2022-11-22T07:17:11.763Z,75.25
2022-11-22T07:18:11.781Z,74.12
2022-11-22T07:19:11.699Z,76.70
2022-11-22T07:20:11.761Z,71.70
2022-11-22T07:21:13.563Z,72.51
2022-11-22T07:22:12.720Z,73.96
2022-11-22T07:23:11.665Z,73.64
2022-11-22T07:24:11.666Z,74.12
2022-11-22T07:25:11.664Z,73.64
2022-11-22T07:26:11.748Z,74.44
2022-11-22T07:27:11.726Z,73.32
2022-11-22T07:28:11.649Z,73.96
2022-11-22T07:29:11.659Z,71.70
2022-11-22T07:30:11.599Z,72.19
2022-11-22T07:31:11.591Z,71.87
2022-11-22T07:32:11.566Z,72.99
2022-11-22T07:33:11.562Z,71.87
2022-11-22T07:34:11.569Z,74.44
2022-11-22T07:35:11.603Z,71.70
2022-11-22T07:36:11.527Z,71.70
2022-11-22T07:37:11.506Z,74.28
2022-11-22T07:38:11.515Z,72.99
2022-11-22T07:39:11.515Z,72.19
2022-11-22T07:40:11.479Z,71.06
2022-11-22T07:41:11.485Z,73.64
2022-11-22T07:42:11.532Z,75.57
2022-11-22T07:43:11.447Z,70.90
2022-11-22T07:44:11.546Z,70.58
2022-11-22T07:45:11.459Z,72.83
2022-11-22T07:46:11.457Z,74.44
2022-11-22T07:47:11.447Z,74.60
2022-11-22T07:48:11.402Z,73.80
2022-11-22T07:49:11.393Z,76.05
2022-11-22T07:50:11.409Z,73.96
2022-11-22T07:51:11.383Z,73.48
2022-11-22T07:52:11.386Z,76.54
2022-11-22T07:53:11.367Z,74.60
2022-11-22T07:54:11.334Z,72.35
2022-11-22T07:55:14.244Z,75.57
2022-11-22T07:56:12.459Z,71.38
2022-11-22T07:57:11.323Z,72.99
2022-11-22T07:58:11.286Z,74.28
2022-11-22T07:59:11.268Z,70.42
2022-11-22T08:00:11.300Z,73.96
2022-11-22T08:01:11.362Z,74.77
2022-11-22T08:02:11.372Z,72.35
2022-11-22T08:03:15.618Z,72.51
2022-11-22T08:04:13.240Z,75.09
2022-11-22T08:05:11.213Z,68.64
2022-11-22T08:06:11.220Z,75.41
2022-11-22T08:07:11.281Z,69.45
2022-11-22T08:08:11.277Z,72.99
2022-11-22T08:09:11.784Z,71.70
2022-11-22T08:10:11.176Z,72.19
2022-11-22T08:11:11.266Z,68.80
2022-11-22T08:12:11.264Z,70.58
2022-11-22T08:13:11.135Z,73.48
2022-11-22T08:14:11.148Z,71.22
2022-11-22T08:15:11.113Z,75.25
2022-11-22T08:16:11.191Z,73.32
2022-11-22T08:17:11.092Z,69.93
2022-11-22T08:18:11.097Z,72.35
2022-11-22T08:19:11.048Z,72.03
2022-11-22T08:20:11.353Z,73.15
2022-11-22T08:21:11.169Z,72.35
2022-11-22T08:22:11.089Z,72.51
2022-11-22T08:23:11.078Z,71.38
2022-11-22T08:24:11.314Z,73.48
2022-11-22T08:25:11.056Z,73.32
2022-11-22T08:26:11.004Z,72.99
2022-11-22T08:27:11.125Z,73.32
2022-11-22T08:28:11.000Z,73.48
2022-11-22T08:29:14.074Z,71.22
2022-11-22T08:30:12.020Z,76.05
2022-11-22T08:31:10.949Z,72.35
2022-11-22T08:32:10.918Z,72.99
2022-11-22T08:33:10.932Z,75.89
2022-11-22T08:34:10.923Z,72.51
2022-11-22T08:35:11.014Z,74.44
2022-11-22T08:36:10.923Z,74.44
2022-11-22T08:37:10.876Z,74.12
2022-11-22T08:38:10.857Z,69.45
2022-11-22T08:39:10.853Z,77.02
2022-11-22T08:40:10.920Z,72.83
2022-11-22T08:41:12.905Z,72.35
2022-11-22T08:42:10.845Z,72.51
2022-11-22T08:43:10.793Z,76.22
2022-11-22T08:44:10.833Z,75.25
2022-11-22T08:45:10.833Z,72.19
2022-11-22T08:46:10.820Z,72.67
2022-11-22T08:47:10.778Z,70.90
2022-11-22T08:48:10.762Z,71.06
2022-11-22T08:49:10.766Z,72.51
2022-11-22T08:50:10.705Z,74.44
2022-11-22T08:51:10.762Z,71.22
2022-11-22T08:52:10.716Z,72.35
2022-11-22T08:53:10.673Z,74.77
2022-11-22T08:54:11.699Z,72.99
2022-11-22T08:55:10.758Z,71.06
2022-11-22T08:56:10.771Z,72.67
2022-11-22T08:57:10.733Z,73.32
2022-11-22T08:58:10.702Z,71.38
2022-11-22T08:59:10.700Z,72.35
2022-11-22T09:00:10.618Z,71.22
2022-11-22T09:01:10.713Z,72.51
2022-11-22T09:02:10.634Z,74.77
2022-11-22T09:03:10.617Z,75.09
2022-11-22T09:04:10.555Z,74.44
2022-11-22T09:05:10.559Z,74.28
2022-11-22T09:10:12.633Z,74.44
2022-11-22T09:11:10.499Z,72.19
2022-11-22T09:12:10.562Z,73.80
2022-11-22T09:13:10.510Z,69.29
2022-11-22T09:14:10.482Z,73.48
2022-11-22T09:15:10.451Z,69.45
2022-11-22T09:16:10.426Z,71.06
2022-11-22T09:17:16.144Z,71.70
2022-11-22T09:18:12.455Z,70.74
2022-11-22T09:19:10.386Z,74.77
2022-11-22T09:20:10.378Z,73.32
2022-11-22T09:21:10.355Z,73.15
2022-11-22T09:22:10.352Z,75.09
2022-11-22T09:23:10.396Z,72.99
2022-11-22T09:24:10.351Z,75.57
2022-11-22T09:25:10.374Z,72.83
2022-11-22T09:26:10.311Z,73.64
2022-11-22T09:27:10.279Z,73.64
2022-11-22T09:28:10.350Z,74.93
2022-11-22T09:29:10.301Z,72.99
2022-11-22T09:30:10.243Z,75.41
2022-11-22T09:31:10.291Z,71.54
2022-11-22T09:32:10.227Z,72.19
2022-11-22T09:33:10.234Z,73.80
2022-11-22T09:34:10.235Z,72.51
2022-11-22T09:35:10.227Z,74.93
2022-11-22T09:36:10.247Z,73.80
2022-11-22T09:37:10.186Z,74.93
2022-11-22T09:38:10.161Z,73.96
2022-11-22T09:39:10.159Z,72.67
2022-11-22T09:40:10.198Z,72.19
2022-11-22T09:41:10.112Z,69.13
2022-11-22T09:42:10.176Z,72.99
2022-11-22T09:43:10.148Z,72.03
2022-11-22T09:44:10.190Z,74.12
2022-11-22T09:45:10.132Z,74.12
2022-11-22T09:46:10.087Z,71.87
2022-11-22T09:47:10.064Z,73.80
2022-11-22T09:48:10.284Z,69.29
2022-11-22T09:49:10.073Z,73.15
2022-11-22T09:50:10.046Z,72.03
2022-11-22T09:51:10.031Z,72.51
2022-11-22T09:52:10.030Z,72.35
2022-11-22T09:53:10.010Z,68.00
2022-11-22T09:54:09.997Z,70.74
2022-11-22T09:55:09.971Z,65.42
2022-11-22T09:56:09.989Z,71.70
2022-11-22T09:57:09.967Z,72.35
2022-11-22T09:58:09.967Z,73.80
2022-11-22T09:59:09.959Z,70.09
2022-11-22T10:00:10.013Z,72.35
2022-11-22T10:01:09.981Z,71.70
2022-11-22T10:02:18.300Z,71.06
2022-11-22T10:03:11.924Z,69.45
2022-11-22T10:04:10.002Z,71.87
2022-11-22T10:05:09.869Z,69.13
2022-11-22T10:06:09.860Z,74.28
2022-11-22T10:07:09.939Z,70.58
2022-11-22T10:08:09.842Z,73.15
2022-11-22T10:09:09.921Z,72.51
2022-11-22T10:10:09.856Z,76.38
2022-11-22T10:11:09.817Z,72.03
2022-11-22T10:12:09.779Z,72.19
2022-11-22T10:13:09.792Z,72.19
2022-11-22T10:14:09.810Z,71.22
2022-11-22T10:15:09.956Z,69.61
2022-11-22T10:16:09.805Z,72.51
2022-11-22T10:17:09.797Z,70.90
2022-11-22T10:18:09.804Z,69.77
2022-11-22T10:19:09.749Z,70.09
2022-11-22T10:20:09.694Z,73.96
2022-11-22T10:21:09.698Z,71.22
2022-11-22T10:22:09.737Z,72.99
2022-11-22T10:23:09.837Z,73.80
2022-11-22T10:24:09.673Z,74.44
2022-11-22T10:25:09.662Z,73.96
2022-11-22T10:26:09.881Z,72.03
2022-11-22T10:27:09.642Z,71.06
2022-11-22T10:28:09.674Z,70.90
2022-11-22T10:29:09.586Z,70.42
2022-11-22T10:30:09.594Z,72.99
2022-11-22T10:31:09.570Z,72.83
2022-11-22T10:32:09.709Z,72.83
2022-11-22T10:33:09.562Z,73.32
2022-11-22T10:34:09.621Z,72.19
2022-11-22T10:35:09.626Z,72.19
2022-11-22T10:36:10.522Z,72.67
2022-11-22T10:37:09.523Z,72.19
2022-11-22T10:38:09.563Z,69.45
2022-11-22T10:39:09.547Z,70.90
2022-11-22T10:40:09.510Z,70.58
2022-11-22T10:41:09.499Z,73.96
2022-11-22T10:42:09.528Z,74.12
2022-11-22T10:43:09.479Z,72.51
2022-11-22T10:44:10.190Z,71.38
2022-11-22T10:45:09.468Z,70.74
2022-11-22T10:46:10.211Z,72.35
2022-11-22T10:47:09.472Z,72.67
2022-11-22T10:48:09.616Z,73.64
2022-11-22T10:49:09.408Z,70.74
2022-11-22T10:50:10.122Z,73.32
2022-11-22T10:51:10.143Z,76.05
2022-11-22T10:52:10.151Z,72.03
2022-11-22T10:53:09.478Z,72.03
2022-11-22T10:54:10.139Z,67.68
2022-11-22T10:55:10.101Z,70.42
2022-11-22T10:56:09.465Z,70.25
2022-11-22T10:57:09.331Z,74.28
2022-11-22T10:58:09.424Z,71.38
2022-11-22T10:59:09.393Z,71.06
2022-11-22T11:00:09.556Z,72.99
2022-11-22T11:01:09.290Z,73.15
2022-11-22T11:02:09.369Z,73.15
2022-11-22T11:03:09.251Z,71.22
2022-11-22T11:04:09.329Z,72.99
2022-11-22T11:05:09.277Z,71.22
2022-11-22T11:06:43.151Z,71.54
2022-11-22T11:07:12.735Z,70.58
2022-11-22T11:08:39.242Z,70.58
2022-11-22T11:10:13.013Z,75.09
2022-11-22T11:11:11.213Z,72.67
2022-11-22T11:12:09.167Z,73.80
2022-11-22T11:13:09.169Z,70.42
2022-11-22T11:14:09.185Z,72.99
2022-11-22T11:15:09.184Z,72.19
2022-11-22T11:16:09.189Z,72.03
2022-11-22T11:17:09.124Z,72.67
2022-11-22T11:18:09.084Z,72.51
2022-11-22T11:19:09.126Z,70.42
2022-11-22T11:20:09.154Z,70.74
2022-11-22T11:21:09.176Z,72.35
2022-11-22T11:22:09.150Z,70.74
2022-11-22T11:23:16.603Z,69.61
2022-11-22T11:24:11.128Z,72.99
2022-11-22T11:25:09.074Z,70.09
2022-11-22T11:26:09.045Z,70.90
2022-11-22T11:27:09.146Z,72.99
2022-11-22T11:28:08.997Z,71.22
2022-11-22T11:29:08.989Z,74.44
2022-11-22T11:30:08.951Z,74.28
2022-11-22T11:31:08.949Z,72.19
2022-11-22T11:32:08.906Z,74.12
2022-11-22T11:33:08.905Z,72.99
2022-11-22T11:34:08.913Z,74.28
2022-11-22T11:35:08.905Z,72.83
2022-11-22T11:36:08.949Z,70.42
2022-11-22T11:37:08.869Z,73.96
2022-11-22T11:38:08.869Z,72.83
2022-11-22T11:39:08.877Z,70.42
2022-11-22T11:40:08.802Z,72.35
2022-11-22T11:41:08.878Z,68.80
2022-11-22T11:42:08.825Z,74.12
2022-11-22T11:43:08.792Z,73.80
2022-11-22T11:44:08.823Z,72.51
2022-11-22T11:45:08.810Z,72.99
2022-11-22T11:46:08.774Z,72.83
2022-11-22T11:47:08.750Z,72.35
2022-11-22T11:48:08.819Z,74.77
2022-11-22T11:49:08.746Z,70.74
2022-11-22T11:50:08.715Z,72.19
2022-11-22T11:51:08.746Z,72.99
2022-11-22T11:52:08.830Z,73.80
2022-11-22T11:53:08.783Z,73.64
2022-11-22T11:54:08.683Z,75.09
2022-11-22T11:55:08.681Z,75.09
2022-11-22T11:56:08.658Z,72.67
2022-11-22T11:57:08.675Z,72.35
2022-11-22T11:58:11.205Z,73.32
2022-11-22T11:59:08.660Z,74.93
2022-11-22T12:00:08.610Z,75.57
2022-11-22T12:01:08.686Z,76.22
2022-11-22T12:02:08.690Z,72.51
2022-11-22T12:03:08.554Z,72.83
2022-11-22T12:04:08.691Z,72.83
2022-11-22T12:05:08.586Z,73.80
2022-11-22T12:06:08.564Z,75.57
2022-11-22T12:07:08.609Z,73.96
2022-11-22T12:08:08.623Z,68.16
2022-11-22T12:09:08.518Z,74.77
2022-11-22T12:10:09.012Z,74.44
2022-11-22T12:11:08.610Z,75.25
2022-11-22T12:12:08.562Z,72.67
2022-11-22T12:13:08.498Z,72.67
2022-11-22T12:14:20.108Z,72.83
2022-11-22T12:15:11.831Z,74.28
2022-11-22T12:16:09.473Z,73.96
2022-11-22T12:17:08.495Z,73.96
2022-11-22T12:18:08.445Z,70.09
2022-11-22T12:19:08.370Z,73.80
2022-11-22T12:20:08.400Z,71.54
2022-11-22T12:21:08.363Z,75.89
2022-11-22T12:22:08.418Z,73.96
2022-11-22T12:23:08.370Z,74.12
2022-11-22T12:24:40.295Z,76.70
2022-11-22T12:25:32.131Z,72.99
2022-11-22T12:26:10.347Z,74.93
2022-11-22T12:27:08.323Z,76.38
2022-11-22T12:28:08.312Z,75.89
2022-11-22T12:29:08.319Z,76.05
2022-11-22T12:30:08.274Z,71.22
2022-11-22T12:31:14.819Z,74.60
2022-11-22T12:32:10.340Z,76.54
2022-11-22T12:33:08.317Z,75.57
2022-11-22T12:34:08.288Z,72.03
2022-11-22T12:35:08.244Z,75.41
2022-11-22T12:36:08.216Z,74.44
2022-11-22T12:37:08.266Z,73.48
2022-11-22T12:38:08.195Z,73.80
2022-11-22T12:39:08.992Z,75.57
2022-11-22T12:40:08.254Z,75.57
2022-11-22T12:41:08.992Z,76.54
2022-11-22T12:42:08.129Z,73.15
2022-11-22T12:43:08.152Z,74.77
2022-11-22T12:44:08.154Z,73.96
2022-11-22T12:45:08.121Z,73.96
2022-11-22T12:46:08.104Z,76.38
2022-11-22T12:47:08.512Z,73.96
2022-11-22T12:48:08.057Z,74.93
2022-11-22T12:49:08.300Z,74.93
2022-11-22T12:50:08.104Z,74.60
2022-11-22T12:51:08.577Z,72.51
2022-11-22T12:52:08.066Z,71.70
2022-11-22T12:53:08.040Z,73.96
2022-11-22T12:54:08.024Z,75.73
2022-11-22T12:55:08.027Z,74.28
2022-11-22T12:56:08.085Z,75.73
2022-11-22T12:57:08.006Z,70.90